Time;durP1;ratioP1;P1;durP2;ratioP2;P2;SDS_P1;SDS_P2;PMS_P1;PMS_P2;Temp;Humidity;BMP_temperature;BMP_pressure;BME280_temperature;BME280_humidity;BME280_pressure;Samples;Min_cycle;Max_cycle;Signal;HPM_P1;HPM_P2
2019/05/27 00:00:21;;;;;;;6.699999;6.100001;;;;;;;10.56;74.40137;94875.81;;;;
2019/05/27 00:01:22;;;;;;;6.699999;6.100001;;;;;;;10.56;74.40137;94875.81;;;;
2019/05/27 00:02:23;;;;;;;6.699999;6.100001;;;;;;;10.56;74.40137;94875.81;;;;
2019/05/27 00:03:24;;;;;;;6.699999;6.100001;;;;;;;10.56;74.40137;94875.81;;;;
2019/05/27 00:04:25;;;;;;;6.5;5.9;;;;;;;10.49;74.83789;94873.41;;;;
2019/05/27 00:05:27;;;;;;;6.5;5.9;;;;;;;10.49;74.83789;94873.41;;;;
2019/05/27 00:06:28;;;;;;;6.5;5.9;;;;;;;10.49;74.83789;94873.41;;;;
2019/05/27 00:07:29;;;;;;;6.5;5.9;;;;;;;10.49;74.83789;94873.41;;;;
2019/05/27 00:08:30;;;;;;;6.5;5.9;;;;;;;10.49;74.83789;94873.41;;;;
2019/05/27 00:09:31;;;;;;;6.5;5.9;;;;;;;10.49;74.83789;94873.41;;;;
2019/05/27 00:10:32;;;;;;;6.5;5.9;;;;;;;10.49;74.83789;94873.41;;;;
2019/05/27 00:11:33;;;;;;;6.5;5.9;;;;;;;10.49;74.83789;94873.41;;;;
2019/05/27 00:12:34;;;;;;;6.5;5.9;;;;;;;10.49;74.83789;94873.41;;;;
2019/05/27 00:13:35;;;;;;;6.5;5.9;;;;;;;10.49;74.83789;94873.41;;;;
2019/05/27 00:14:36;;;;;;;7;6.35;;;;;;;10.51;75.41895;94868.99;;;;
2019/05/27 00:15:37;;;;;;;7;6.35;;;;;;;10.51;75.41895;94868.99;;;;
2019/05/27 00:16:38;;;;;;;7;6.35;;;;;;;10.51;75.41895;94868.99;;;;
2019/05/27 00:17:39;;;;;;;7;6.35;;;;;;;10.51;75.41895;94868.99;;;;
2019/05/27 00:18:40;;;;;;;7;6.35;;;;;;;10.51;75.41895;94868.99;;;;
2019/05/27 00:19:42;;;;;;;7;6.35;;;;;;;10.51;75.41895;94868.99;;;;
2019/05/27 00:20:43;;;;;;;7;6.35;;;;;;;10.51;75.41895;94868.99;;;;
2019/05/27 00:21:44;;;;;;;7;6.35;;;;;;;10.51;75.41895;94868.99;;;;
2019/05/27 00:22:45;;;;;;;7;6.35;;;;;;;10.51;75.41895;94868.99;;;;
2019/05/27 00:23:46;;;;;;;7;6.35;;;;;;;10.51;75.41895;94868.99;;;;
2019/05/27 00:24:47;;;;;;;6.649999;6.050001;;;;;;;10.39;75.77344;94863.79;;;;
2019/05/27 00:25:48;;;;;;;6.649999;6.050001;;;;;;;10.39;75.77344;94863.79;;;;
2019/05/27 00:26:49;;;;;;;6.649999;6.050001;;;;;;;10.39;75.77344;94863.79;;;;
2019/05/27 00:27:50;;;;;;;6.649999;6.050001;;;;;;;10.39;75.77344;94863.79;;;;
2019/05/27 00:28:51;;;;;;;6.649999;6.050001;;;;;;;10.39;75.77344;94863.79;;;;
2019/05/27 00:29:52;;;;;;;6.649999;6.050001;;;;;;;10.39;75.77344;94863.79;;;;
2019/05/27 00:30:53;;;;;;;6.649999;6.050001;;;;;;;10.39;75.77344;94863.79;;;;
2019/05/27 00:31:54;;;;;;;6.649999;6.050001;;;;;;;10.39;75.77344;94863.79;;;;
2019/05/27 00:32:55;;;;;;;6.649999;6.050001;;;;;;;10.39;75.77344;94863.79;;;;
2019/05/27 00:33:57;;;;;;;6.649999;6.050001;;;;;;;10.39;75.77344;94863.79;;;;
2019/05/27 00:34:58;;;;;;;6.649999;6.050001;;;;;;;10.39;75.77344;94863.79;;;;
2019/05/27 00:35:59;;;;;;;6.649999;6.050001;;;;;;;10.39;75.77344;94863.79;;;;
2019/05/27 00:37:00;;;;;;;6.649999;6.050001;;;;;;;10.39;75.77344;94863.79;;;;
2019/05/27 00:38:01;;;;;;;6.649999;6.050001;;;;;;;10.39;75.77344;94863.79;;;;
2019/05/27 00:39:02;;;;;;;6.649999;6.050001;;;;;;;10.39;75.77344;94863.79;;;;
2019/05/27 00:40:04;;;;;;;6.649999;6.050001;;;;;;;10.39;75.77344;94863.79;;;;
2019/05/27 00:41:05;;;;;;;6.649999;6.050001;;;;;;;10.39;75.77344;94863.79;;;;
2019/05/27 00:42:06;;;;;;;6.649999;6.050001;;;;;;;10.39;75.77344;94863.79;;;;
2019/05/27 00:43:07;;;;;;;6.649999;6.050001;;;;;;;10.39;75.77344;94863.79;;;;
2019/05/27 00:44:08;;;;;;;6.649999;6.050001;;;;;;;10.39;75.77344;94863.79;;;;
2019/05/27 00:45:09;;;;;;;6.649999;6.050001;;;;;;;10.39;75.77344;94863.79;;;;
2019/05/27 00:46:11;;;;;;;8.000001;7.2;;;;;;;10.24;76.84863;94854.5;;;;
2019/05/27 00:47:12;;;;;;;8.000001;7.2;;;;;;;10.24;76.84863;94854.5;;;;
2019/05/27 00:48:17;;;;;;;8.000001;7.2;;;;;;;10.24;76.84863;94854.5;;;;
2019/05/27 00:49:18;;;;;;;8.000001;7.2;;;;;;;10.24;76.84863;94854.5;;;;
2019/05/27 00:50:19;;;;;;;8.000001;7.2;;;;;;;10.24;76.84863;94854.5;;;;
2019/05/27 00:51:20;;;;;;;8.000001;7.2;;;;;;;10.24;76.84863;94854.5;;;;
2019/05/27 00:52:21;;;;;;;8.000001;7.2;;;;;;;10.24;76.84863;94854.5;;;;
2019/05/27 00:53:22;;;;;;;8.000001;7.2;;;;;;;10.24;76.84863;94854.5;;;;
2019/05/27 00:54:23;;;;;;;8.000001;7.2;;;;;;;10.24;76.84863;94854.5;;;;
2019/05/27 00:55:24;;;;;;;8.000001;7.2;;;;;;;10.24;76.84863;94854.5;;;;
2019/05/27 00:56:25;;;;;;;8.000001;7.2;;;;;;;10.24;76.84863;94854.5;;;;
2019/05/27 00:57:26;;;;;;;7.599999;6.900001;;;;;;;10.32;77.48145;94853.28;;;;
2019/05/27 00:58:27;;;;;;;7.599999;6.900001;;;;;;;10.32;77.48145;94853.28;;;;
2019/05/27 00:59:29;;;;;;;7.599999;6.900001;;;;;;;10.32;77.48145;94853.28;;;;
2019/05/27 01:00:30;;;;;;;7.599999;6.900001;;;;;;;10.32;77.48145;94853.28;;;;
2019/05/27 01:01:41;;;;;;;7.599999;6.900001;;;;;;;10.32;77.48145;94853.28;;;;
2019/05/27 01:02:42;;;;;;;7.599999;6.900001;;;;;;;10.32;77.48145;94853.28;;;;
2019/05/27 01:03:43;;;;;;;7.599999;6.900001;;;;;;;10.32;77.48145;94853.28;;;;
2019/05/27 01:04:45;;;;;;;7.599999;6.900001;;;;;;;10.32;77.48145;94853.28;;;;
2019/05/27 01:05:46;;;;;;;7.599999;6.900001;;;;;;;10.32;77.48145;94853.28;;;;
2019/05/27 01:06:47;;;;;;;7.599999;6.900001;;;;;;;10.32;77.48145;94853.28;;;;
2019/05/27 01:07:48;;;;;;;7.599999;6.900001;;;;;;;10.32;77.48145;94853.28;;;;
2019/05/27 01:08:49;;;;;;;7.599999;6.900001;;;;;;;10.32;77.48145;94853.28;;;;
2019/05/27 01:09:51;;;;;;;7.599999;6.900001;;;;;;;10.32;77.48145;94853.28;;;;
2019/05/27 01:10:52;;;;;;;7.599999;6.900001;;;;;;;10.32;77.48145;94853.28;;;;
2019/05/27 01:11:53;;;;;;;7.599999;6.900001;;;;;;;10.32;77.48145;94853.28;;;;
2019/05/27 01:12:54;;;;;;;7.599999;6.900001;;;;;;;10.32;77.48145;94853.28;;;;
2019/05/27 01:13:55;;;;;;;7.599999;6.900001;;;;;;;10.32;77.48145;94853.28;;;;
2019/05/27 01:14:56;;;;;;;7.599999;6.900001;;;;;;;10.32;77.48145;94853.28;;;;
2019/05/27 01:15:57;;;;;;;7.599999;6.900001;;;;;;;10.32;77.48145;94853.28;;;;
2019/05/27 01:16:59;;;;;;;7.599999;6.900001;;;;;;;10.32;77.48145;94853.28;;;;
2019/05/27 01:18:00;;;;;;;8.35;7.599999;;;;;;;10.25;78.31348;94844.02;;;;
2019/05/27 01:19:01;;;;;;;8.35;7.599999;;;;;;;10.25;78.31348;94844.02;;;;
2019/05/27 01:20:02;;;;;;;8.35;7.599999;;;;;;;10.25;78.31348;94844.02;;;;
2019/05/27 01:21:04;;;;;;;8.35;7.599999;;;;;;;10.25;78.31348;94844.02;;;;
2019/05/27 01:22:05;;;;;;;8.35;7.599999;;;;;;;10.25;78.31348;94844.02;;;;
2019/05/27 01:23:06;;;;;;;8.35;7.599999;;;;;;;10.25;78.31348;94844.02;;;;
2019/05/27 01:24:07;;;;;;;8.35;7.599999;;;;;;;10.25;78.31348;94844.02;;;;
2019/05/27 01:25:09;;;;;;;8.35;7.599999;;;;;;;10.25;78.31348;94844.02;;;;
2019/05/27 01:26:10;;;;;;;8.35;7.599999;;;;;;;10.25;78.31348;94844.02;;;;
2019/05/27 01:27:11;;;;;;;8.35;7.599999;;;;;;;10.25;78.31348;94844.02;;;;
2019/05/27 01:28:12;;;;;;;8.900001;8.05;;;;;;;10.11;78.73633;94841.74;;;;
2019/05/27 01:29:13;;;;;;;8.900001;8.05;;;;;;;10.11;78.73633;94841.74;;;;
2019/05/27 01:30:14;;;;;;;8.900001;8.05;;;;;;;10.11;78.73633;94841.74;;;;
2019/05/27 01:31:17;;;;;;;8.900001;8.05;;;;;;;10.11;78.73633;94841.74;;;;
2019/05/27 01:32:18;;;;;;;8.900001;8.05;;;;;;;10.11;78.73633;94841.74;;;;
2019/05/27 01:33:19;;;;;;;8.900001;8.05;;;;;;;10.11;78.73633;94841.74;;;;
2019/05/27 01:34:20;;;;;;;8.900001;8.05;;;;;;;10.11;78.73633;94841.74;;;;
2019/05/27 01:35:21;;;;;;;8.900001;8.05;;;;;;;10.11;78.73633;94841.74;;;;
2019/05/27 01:36:22;;;;;;;8.900001;8.05;;;;;;;10.11;78.73633;94841.74;;;;
2019/05/27 01:37:24;;;;;;;8.900001;8.05;;;;;;;10.11;78.73633;94841.74;;;;
2019/05/27 01:38:25;;;;;;;8.900001;8.05;;;;;;;10.11;78.73633;94841.74;;;;
2019/05/27 01:39:26;;;;;;;8.799998;8;;;;;;;10.04;79.29004;94826.2;;;;
2019/05/27 01:40:27;;;;;;;8.799998;8;;;;;;;10.04;79.29004;94826.2;;;;
2019/05/27 01:41:28;;;;;;;8.799998;8;;;;;;;10.04;79.29004;94826.2;;;;
2019/05/27 01:42:29;;;;;;;8.799998;8;;;;;;;10.04;79.29004;94826.2;;;;
2019/05/27 01:43:31;;;;;;;8.799998;8;;;;;;;10.04;79.29004;94826.2;;;;
2019/05/27 01:44:32;;;;;;;8.799998;8;;;;;;;10.04;79.29004;94826.2;;;;
2019/05/27 01:45:33;;;;;;;8.799998;8;;;;;;;10.04;79.29004;94826.2;;;;
2019/05/27 01:46:34;;;;;;;8.799998;8;;;;;;;10.04;79.29004;94826.2;;;;
2019/05/27 01:47:35;;;;;;;8.799998;8;;;;;;;10.04;79.29004;94826.2;;;;
2019/05/27 01:48:36;;;;;;;8.799998;8;;;;;;;10.04;79.29004;94826.2;;;;
2019/05/27 01:49:37;;;;;;;9.200001;8.35;;;;;;;9.9;79.71289;94815.45;;;;
2019/05/27 01:50:38;;;;;;;9.200001;8.35;;;;;;;9.9;79.71289;94815.45;;;;
2019/05/27 01:51:39;;;;;;;9.200001;8.35;;;;;;;9.9;79.71289;94815.45;;;;
2019/05/27 01:52:41;;;;;;;9.200001;8.35;;;;;;;9.9;79.71289;94815.45;;;;
2019/05/27 01:53:42;;;;;;;9.200001;8.35;;;;;;;9.9;79.71289;94815.45;;;;
2019/05/27 01:54:43;;;;;;;9.200001;8.35;;;;;;;9.9;79.71289;94815.45;;;;
2019/05/27 01:55:44;;;;;;;9.200001;8.35;;;;;;;9.9;79.71289;94815.45;;;;
2019/05/27 01:56:45;;;;;;;9.200001;8.35;;;;;;;9.9;79.71289;94815.45;;;;
2019/05/27 01:57:46;;;;;;;9.200001;8.35;;;;;;;9.9;79.71289;94815.45;;;;
2019/05/27 01:58:47;;;;;;;9.200001;8.35;;;;;;;9.9;79.71289;94815.45;;;;
2019/05/27 01:59:49;;;;;;;9.200001;8.35;;;;;;;9.9;79.71289;94815.45;;;;
2019/05/27 02:00:50;;;;;;;9.799999;9.000002;;;;;;;9.82;80.19824;94806.02;;;;
2019/05/27 02:01:51;;;;;;;9.799999;9.000002;;;;;;;9.82;80.19824;94806.02;;;;
2019/05/27 02:02:52;;;;;;;9.799999;9.000002;;;;;;;9.82;80.19824;94806.02;;;;
2019/05/27 02:03:53;;;;;;;9.799999;9.000002;;;;;;;9.82;80.19824;94806.02;;;;
2019/05/27 02:04:54;;;;;;;9.799999;9.000002;;;;;;;9.82;80.19824;94806.02;;;;
2019/05/27 02:05:55;;;;;;;9.799999;9.000002;;;;;;;9.82;80.19824;94806.02;;;;
2019/05/27 02:06:56;;;;;;;9.799999;9.000002;;;;;;;9.82;80.19824;94806.02;;;;
2019/05/27 02:07:58;;;;;;;9.799999;9.000002;;;;;;;9.82;80.19824;94806.02;;;;
2019/05/27 02:08:59;;;;;;;9.799999;9.000002;;;;;;;9.82;80.19824;94806.02;;;;
2019/05/27 02:10:00;;;;;;;9.799999;9.000002;;;;;;;9.82;80.19824;94806.02;;;;
2019/05/27 02:11:01;;;;;;;10.05;9.050002;;;;;;;9.67;80.62891;94807.9;;;;
2019/05/27 02:12:02;;;;;;;10.05;9.050002;;;;;;;9.67;80.62891;94807.9;;;;
2019/05/27 02:13:03;;;;;;;10.05;9.050002;;;;;;;9.67;80.62891;94807.9;;;;
2019/05/27 02:14:04;;;;;;;10.05;9.050002;;;;;;;9.67;80.62891;94807.9;;;;
2019/05/27 02:15:06;;;;;;;10.05;9.050002;;;;;;;9.67;80.62891;94807.9;;;;
2019/05/27 02:16:07;;;;;;;10.05;9.050002;;;;;;;9.67;80.62891;94807.9;;;;
2019/05/27 02:17:08;;;;;;;10.05;9.050002;;;;;;;9.67;80.62891;94807.9;;;;
2019/05/27 02:18:09;;;;;;;10.05;9.050002;;;;;;;9.67;80.62891;94807.9;;;;
2019/05/27 02:19:10;;;;;;;10.05;9.050002;;;;;;;9.67;80.62891;94807.9;;;;
2019/05/27 02:20:12;;;;;;;10.05;9.050002;;;;;;;9.67;80.62891;94807.9;;;;
2019/05/27 02:21:13;;;;;;;11.55;10.45;;;;;;;9.63;81.14355;94795.54;;;;
2019/05/27 02:22:14;;;;;;;11.55;10.45;;;;;;;9.63;81.14355;94795.54;;;;
2019/05/27 02:23:15;;;;;;;11.55;10.45;;;;;;;9.63;81.14355;94795.54;;;;
2019/05/27 02:24:16;;;;;;;11.55;10.45;;;;;;;9.63;81.14355;94795.54;;;;
2019/05/27 02:25:18;;;;;;;11.55;10.45;;;;;;;9.63;81.14355;94795.54;;;;
2019/05/27 02:26:19;;;;;;;11.55;10.45;;;;;;;9.63;81.14355;94795.54;;;;
2019/05/27 02:27:20;;;;;;;11.55;10.45;;;;;;;9.63;81.14355;94795.54;;;;
2019/05/27 02:28:22;;;;;;;11.55;10.45;;;;;;;9.63;81.14355;94795.54;;;;
2019/05/27 02:29:23;;;;;;;11.55;10.45;;;;;;;9.63;81.14355;94795.54;;;;
2019/05/27 02:30:24;;;;;;;11.55;10.45;;;;;;;9.63;81.14355;94795.54;;;;
2019/05/27 02:31:33;;;;;;;11.55;10.45;;;;;;;9.63;81.14355;94795.54;;;;
2019/05/27 02:32:34;;;;;;;11.35;10.25;;;;;;;9.57;81.58105;94796.12;;;;
2019/05/27 02:33:35;;;;;;;11.35;10.25;;;;;;;9.57;81.58105;94796.12;;;;
2019/05/27 02:34:36;;;;;;;11.35;10.25;;;;;;;9.57;81.58105;94796.12;;;;
2019/05/27 02:35:37;;;;;;;11.35;10.25;;;;;;;9.57;81.58105;94796.12;;;;
2019/05/27 02:36:38;;;;;;;11.35;10.25;;;;;;;9.57;81.58105;94796.12;;;;
2019/05/27 02:37:40;;;;;;;11.35;10.25;;;;;;;9.57;81.58105;94796.12;;;;
2019/05/27 02:38:41;;;;;;;11.35;10.25;;;;;;;9.57;81.58105;94796.12;;;;
2019/05/27 02:39:42;;;;;;;11.35;10.25;;;;;;;9.57;81.58105;94796.12;;;;
2019/05/27 02:40:43;;;;;;;11.35;10.25;;;;;;;9.57;81.58105;94796.12;;;;
2019/05/27 02:41:44;;;;;;;11.35;10.25;;;;;;;9.57;81.58105;94796.12;;;;
2019/05/27 02:42:45;;;;;;;10.8;9.8;;;;;;;9.56;82.10059;94785.86;;;;
2019/05/27 02:43:46;;;;;;;10.8;9.8;;;;;;;9.56;82.10059;94785.86;;;;
2019/05/27 02:44:48;;;;;;;10.8;9.8;;;;;;;9.56;82.10059;94785.86;;;;
2019/05/27 02:45:49;;;;;;;10.8;9.8;;;;;;;9.56;82.10059;94785.86;;;;
2019/05/27 02:46:50;;;;;;;10.8;9.8;;;;;;;9.56;82.10059;94785.86;;;;
2019/05/27 02:47:51;;;;;;;10.8;9.8;;;;;;;9.56;82.10059;94785.86;;;;
2019/05/27 02:48:52;;;;;;;10.8;9.8;;;;;;;9.56;82.10059;94785.86;;;;
2019/05/27 02:49:53;;;;;;;10.8;9.8;;;;;;;9.56;82.10059;94785.86;;;;
2019/05/27 02:50:54;;;;;;;10.8;9.8;;;;;;;9.56;82.10059;94785.86;;;;
2019/05/27 02:51:55;;;;;;;10.8;9.8;;;;;;;9.56;82.10059;94785.86;;;;
2019/05/27 02:52:56;;;;;;;10.7;9.700001;;;;;;;9.45;82.45215;94781.86;;;;
2019/05/27 02:53:57;;;;;;;10.7;9.700001;;;;;;;9.45;82.45215;94781.86;;;;
2019/05/27 02:54:58;;;;;;;10.7;9.700001;;;;;;;9.45;82.45215;94781.86;;;;
2019/05/27 02:56:00;;;;;;;10.7;9.700001;;;;;;;9.45;82.45215;94781.86;;;;
2019/05/27 02:57:01;;;;;;;10.7;9.700001;;;;;;;9.45;82.45215;94781.86;;;;
2019/05/27 02:58:02;;;;;;;10.7;9.700001;;;;;;;9.45;82.45215;94781.86;;;;
2019/05/27 02:59:03;;;;;;;10.7;9.700001;;;;;;;9.45;82.45215;94781.86;;;;
2019/05/27 03:00:04;;;;;;;10.7;9.700001;;;;;;;9.45;82.45215;94781.86;;;;
2019/05/27 03:01:05;;;;;;;10.7;9.700001;;;;;;;9.45;82.45215;94781.86;;;;
2019/05/27 03:02:06;;;;;;;10.7;9.700001;;;;;;;9.45;82.45215;94781.86;;;;
2019/05/27 03:03:07;;;;;;;10.7;9.700001;;;;;;;9.45;82.45215;94781.86;;;;
2019/05/27 03:04:09;;;;;;;12.65;11.35;;;;;;;9.43;82.95117;94778.47;;;;
2019/05/27 03:05:10;;;;;;;12.65;11.35;;;;;;;9.43;82.95117;94778.47;;;;
2019/05/27 03:06:11;;;;;;;12.65;11.35;;;;;;;9.43;82.95117;94778.47;;;;
2019/05/27 03:07:12;;;;;;;12.65;11.35;;;;;;;9.43;82.95117;94778.47;;;;
2019/05/27 03:08:13;;;;;;;12.65;11.35;;;;;;;9.43;82.95117;94778.47;;;;
2019/05/27 03:09:14;;;;;;;12.65;11.35;;;;;;;9.43;82.95117;94778.47;;;;
2019/05/27 03:10:15;;;;;;;12.65;11.35;;;;;;;9.43;82.95117;94778.47;;;;
2019/05/27 03:11:17;;;;;;;12.65;11.35;;;;;;;9.43;82.95117;94778.47;;;;
2019/05/27 03:12:18;;;;;;;12.65;11.35;;;;;;;9.43;82.95117;94778.47;;;;
2019/05/27 03:13:19;;;;;;;12.65;11.35;;;;;;;9.43;82.95117;94778.47;;;;
2019/05/27 03:14:20;;;;;;;12.2;10.85;;;;;;;9.35;83.37988;94780.33;;;;
2019/05/27 03:15:21;;;;;;;12.2;10.85;;;;;;;9.35;83.37988;94780.33;;;;
2019/05/27 03:16:22;;;;;;;12.2;10.85;;;;;;;9.35;83.37988;94780.33;;;;
2019/05/27 03:17:23;;;;;;;12.2;10.85;;;;;;;9.35;83.37988;94780.33;;;;
2019/05/27 03:18:24;;;;;;;12.2;10.85;;;;;;;9.35;83.37988;94780.33;;;;
2019/05/27 03:19:25;;;;;;;12.2;10.85;;;;;;;9.35;83.37988;94780.33;;;;
2019/05/27 03:20:27;;;;;;;12.2;10.85;;;;;;;9.35;83.37988;94780.33;;;;
2019/05/27 03:21:28;;;;;;;12.2;10.85;;;;;;;9.35;83.37988;94780.33;;;;
2019/05/27 03:22:29;;;;;;;12.2;10.85;;;;;;;9.35;83.37988;94780.33;;;;
2019/05/27 03:23:30;;;;;;;12.2;10.85;;;;;;;9.35;83.37988;94780.33;;;;
2019/05/27 03:24:31;;;;;;;12.2;10.85;;;;;;;9.35;83.37988;94780.33;;;;
2019/05/27 03:25:32;;;;;;;11.8;10.7;;;;;;;9.37;83.875;94787.5;;;;
2019/05/27 03:26:33;;;;;;;11.8;10.7;;;;;;;9.37;83.875;94787.5;;;;
2019/05/27 03:27:34;;;;;;;11.8;10.7;;;;;;;9.37;83.875;94787.5;;;;
2019/05/27 03:28:35;;;;;;;11.8;10.7;;;;;;;9.37;83.875;94787.5;;;;
2019/05/27 03:29:36;;;;;;;11.8;10.7;;;;;;;9.37;83.875;94787.5;;;;
2019/05/27 03:30:37;;;;;;;11.8;10.7;;;;;;;9.37;83.875;94787.5;;;;
2019/05/27 03:31:39;;;;;;;11.8;10.7;;;;;;;9.37;83.875;94787.5;;;;
2019/05/27 03:32:40;;;;;;;11.8;10.7;;;;;;;9.37;83.875;94787.5;;;;
2019/05/27 03:33:41;;;;;;;11.8;10.7;;;;;;;9.37;83.875;94787.5;;;;
2019/05/27 03:34:42;;;;;;;11.8;10.7;;;;;;;9.37;83.875;94787.5;;;;
2019/05/27 03:35:43;;;;;;;12.35;11.15;;;;;;;9.42;84.22461;94793.13;;;;
2019/05/27 03:36:44;;;;;;;12.35;11.15;;;;;;;9.42;84.22461;94793.13;;;;
2019/05/27 03:37:45;;;;;;;12.35;11.15;;;;;;;9.42;84.22461;94793.13;;;;
2019/05/27 03:38:46;;;;;;;12.35;11.15;;;;;;;9.42;84.22461;94793.13;;;;
2019/05/27 03:39:47;;;;;;;12.35;11.15;;;;;;;9.42;84.22461;94793.13;;;;
2019/05/27 03:40:49;;;;;;;12.35;11.15;;;;;;;9.42;84.22461;94793.13;;;;
2019/05/27 03:41:50;;;;;;;12.35;11.15;;;;;;;9.42;84.22461;94793.13;;;;
2019/05/27 03:42:51;;;;;;;12.35;11.15;;;;;;;9.42;84.22461;94793.13;;;;
2019/05/27 03:43:52;;;;;;;12.35;11.15;;;;;;;9.42;84.22461;94793.13;;;;
2019/05/27 03:44:53;;;;;;;12.35;11.15;;;;;;;9.42;84.22461;94793.13;;;;
2019/05/27 03:45:54;;;;;;;12.75;11.5;;;;;;;9.61;84.91016;94790.51;;;;
2019/05/27 03:46:55;;;;;;;12.75;11.5;;;;;;;9.61;84.91016;94790.51;;;;
2019/05/27 03:47:56;;;;;;;12.75;11.5;;;;;;;9.61;84.91016;94790.51;;;;
2019/05/27 03:48:57;;;;;;;12.75;11.5;;;;;;;9.61;84.91016;94790.51;;;;
2019/05/27 03:49:58;;;;;;;12.75;11.5;;;;;;;9.61;84.91016;94790.51;;;;
2019/05/27 03:50:59;;;;;;;12.75;11.5;;;;;;;9.61;84.91016;94790.51;;;;
2019/05/27 03:52:01;;;;;;;12.75;11.5;;;;;;;9.61;84.91016;94790.51;;;;
2019/05/27 03:53:02;;;;;;;12.75;11.5;;;;;;;9.61;84.91016;94790.51;;;;
2019/05/27 03:54:03;;;;;;;12.75;11.5;;;;;;;9.61;84.91016;94790.51;;;;
2019/05/27 03:55:04;;;;;;;12.75;11.5;;;;;;;9.61;84.91016;94790.51;;;;
2019/05/27 03:56:05;;;;;;;12.75;11.5;;;;;;;9.61;84.91016;94790.51;;;;
2019/05/27 03:57:07;;;;;;;12.2;11.1;;;;;;;9.75;85.13965;94794.56;;;;
2019/05/27 03:58:08;;;;;;;12.2;11.1;;;;;;;9.75;85.13965;94794.56;;;;
2019/05/27 03:59:09;;;;;;;12.2;11.1;;;;;;;9.75;85.13965;94794.56;;;;
2019/05/27 04:00:10;;;;;;;12.2;11.1;;;;;;;9.75;85.13965;94794.56;;;;
2019/05/27 04:01:11;;;;;;;12.2;11.1;;;;;;;9.75;85.13965;94794.56;;;;
2019/05/27 04:02:12;;;;;;;12.2;11.1;;;;;;;9.75;85.13965;94794.56;;;;
2019/05/27 04:03:13;;;;;;;12.2;11.1;;;;;;;9.75;85.13965;94794.56;;;;
2019/05/27 04:04:14;;;;;;;12.2;11.1;;;;;;;9.75;85.13965;94794.56;;;;
2019/05/27 04:05:15;;;;;;;12.2;11.1;;;;;;;9.75;85.13965;94794.56;;;;
2019/05/27 04:06:17;;;;;;;12.2;11.1;;;;;;;9.75;85.13965;94794.56;;;;
2019/05/27 04:07:18;;;;;;;13.1;11.75;;;;;;;9.99;85.25;94796.98;;;;
2019/05/27 04:08:19;;;;;;;13.1;11.75;;;;;;;9.99;85.25;94796.98;;;;
2019/05/27 04:09:20;;;;;;;13.1;11.75;;;;;;;9.99;85.25;94796.98;;;;
2019/05/27 04:10:21;;;;;;;13.1;11.75;;;;;;;9.99;85.25;94796.98;;;;
2019/05/27 04:11:22;;;;;;;13.1;11.75;;;;;;;9.99;85.25;94796.98;;;;
2019/05/27 04:12:23;;;;;;;13.1;11.75;;;;;;;9.99;85.25;94796.98;;;;
2019/05/27 04:13:24;;;;;;;13.1;11.75;;;;;;;9.99;85.25;94796.98;;;;
2019/05/27 04:14:25;;;;;;;13.1;11.75;;;;;;;9.99;85.25;94796.98;;;;
2019/05/27 04:15:26;;;;;;;13.1;11.75;;;;;;;9.99;85.25;94796.98;;;;
2019/05/27 04:16:27;;;;;;;13.1;11.75;;;;;;;9.99;85.25;94796.98;;;;
2019/05/27 04:17:29;;;;;;;13.1;11.75;;;;;;;9.99;85.25;94796.98;;;;
2019/05/27 04:18:30;;;;;;;11.9;10.8;;;;;;;10.31;85.28027;94800.78;;;;
2019/05/27 04:19:31;;;;;;;11.9;10.8;;;;;;;10.31;85.28027;94800.78;;;;
2019/05/27 04:20:32;;;;;;;11.9;10.8;;;;;;;10.31;85.28027;94800.78;;;;
2019/05/27 04:21:34;;;;;;;11.9;10.8;;;;;;;10.31;85.28027;94800.78;;;;
2019/05/27 04:22:35;;;;;;;11.9;10.8;;;;;;;10.31;85.28027;94800.78;;;;
2019/05/27 04:23:36;;;;;;;11.9;10.8;;;;;;;10.31;85.28027;94800.78;;;;
2019/05/27 04:24:37;;;;;;;11.9;10.8;;;;;;;10.31;85.28027;94800.78;;;;
2019/05/27 04:25:38;;;;;;;11.9;10.8;;;;;;;10.31;85.28027;94800.78;;;;
2019/05/27 04:26:40;;;;;;;11.9;10.8;;;;;;;10.31;85.28027;94800.78;;;;
2019/05/27 04:27:41;;;;;;;11.9;10.8;;;;;;;10.31;85.28027;94800.78;;;;
2019/05/27 04:28:42;;;;;;;10.6;9.600001;;;;;;;10.92;85.06836;94802.51;;;;
2019/05/27 04:29:43;;;;;;;10.6;9.600001;;;;;;;10.92;85.06836;94802.51;;;;
2019/05/27 04:30:44;;;;;;;10.6;9.600001;;;;;;;10.92;85.06836;94802.51;;;;
2019/05/27 04:31:45;;;;;;;10.6;9.600001;;;;;;;10.92;85.06836;94802.51;;;;
2019/05/27 04:32:46;;;;;;;10.6;9.600001;;;;;;;10.92;85.06836;94802.51;;;;
2019/05/27 04:33:47;;;;;;;10.6;9.600001;;;;;;;10.92;85.06836;94802.51;;;;
2019/05/27 04:34:48;;;;;;;10.6;9.600001;;;;;;;10.92;85.06836;94802.51;;;;
2019/05/27 04:35:49;;;;;;;10.6;9.600001;;;;;;;10.92;85.06836;94802.51;;;;
2019/05/27 04:36:50;;;;;;;10.6;9.600001;;;;;;;10.92;85.06836;94802.51;;;;
2019/05/27 04:37:52;;;;;;;10.6;9.600001;;;;;;;10.92;85.06836;94802.51;;;;
2019/05/27 04:38:53;;;;;;;10.05;9.050001;;;;;;;11.43;84.75098;94793.02;;;;
2019/05/27 04:39:54;;;;;;;10.05;9.050001;;;;;;;11.43;84.75098;94793.02;;;;
2019/05/27 04:40:55;;;;;;;10.05;9.050001;;;;;;;11.43;84.75098;94793.02;;;;
2019/05/27 04:41:56;;;;;;;10.05;9.050001;;;;;;;11.43;84.75098;94793.02;;;;
2019/05/27 04:42:57;;;;;;;10.05;9.050001;;;;;;;11.43;84.75098;94793.02;;;;
2019/05/27 04:43:58;;;;;;;10.05;9.050001;;;;;;;11.43;84.75098;94793.02;;;;
2019/05/27 04:44:59;;;;;;;10.05;9.050001;;;;;;;11.43;84.75098;94793.02;;;;
2019/05/27 04:46:00;;;;;;;10.05;9.050001;;;;;;;11.43;84.75098;94793.02;;;;
2019/05/27 04:47:01;;;;;;;10.05;9.050001;;;;;;;11.43;84.75098;94793.02;;;;
2019/05/27 04:48:02;;;;;;;10.05;9.050001;;;;;;;11.43;84.75098;94793.02;;;;
2019/05/27 04:49:03;;;;;;;10.05;9.050001;;;;;;;11.43;84.75098;94793.02;;;;
2019/05/27 04:50:04;;;;;;;9.199999;8.400002;;;;;;;11.75;84.85547;94789.89;;;;
2019/05/27 04:51:06;;;;;;;9.199999;8.400002;;;;;;;11.75;84.85547;94789.89;;;;
2019/05/27 04:52:07;;;;;;;9.199999;8.400002;;;;;;;11.75;84.85547;94789.89;;;;
2019/05/27 04:53:08;;;;;;;9.199999;8.400002;;;;;;;11.75;84.85547;94789.89;;;;
2019/05/27 04:54:09;;;;;;;9.199999;8.400002;;;;;;;11.75;84.85547;94789.89;;;;
2019/05/27 04:55:10;;;;;;;9.199999;8.400002;;;;;;;11.75;84.85547;94789.89;;;;
2019/05/27 04:56:11;;;;;;;9.199999;8.400002;;;;;;;11.75;84.85547;94789.89;;;;
2019/05/27 04:57:12;;;;;;;9.199999;8.400002;;;;;;;11.75;84.85547;94789.89;;;;
2019/05/27 04:58:13;;;;;;;9.199999;8.400002;;;;;;;11.75;84.85547;94789.89;;;;
2019/05/27 04:59:15;;;;;;;9.199999;8.400002;;;;;;;11.75;84.85547;94789.89;;;;
2019/05/27 05:00:16;;;;;;;8.199999;7.500001;;;;;;;11.81;85.3584;94802.51;;;;
2019/05/27 05:01:17;;;;;;;8.199999;7.500001;;;;;;;11.81;85.3584;94802.51;;;;
2019/05/27 05:02:18;;;;;;;8.199999;7.500001;;;;;;;11.81;85.3584;94802.51;;;;
2019/05/27 05:03:19;;;;;;;8.199999;7.500001;;;;;;;11.81;85.3584;94802.51;;;;
2019/05/27 05:04:20;;;;;;;8.199999;7.500001;;;;;;;11.81;85.3584;94802.51;;;;
2019/05/27 05:05:21;;;;;;;8.199999;7.500001;;;;;;;11.81;85.3584;94802.51;;;;
2019/05/27 05:06:22;;;;;;;8.199999;7.500001;;;;;;;11.81;85.3584;94802.51;;;;
2019/05/27 05:07:23;;;;;;;8.199999;7.500001;;;;;;;11.81;85.3584;94802.51;;;;
2019/05/27 05:08:24;;;;;;;8.199999;7.500001;;;;;;;11.81;85.3584;94802.51;;;;
2019/05/27 05:09:25;;;;;;;8.199999;7.500001;;;;;;;11.81;85.3584;94802.51;;;;
2019/05/27 05:10:26;;;;;;;8.199999;7.500001;;;;;;;11.81;85.3584;94802.51;;;;
2019/05/27 05:11:30;;;;;;;8.349999;7.65;;;;;;;12.13;85.25977;94799.31;;;;
2019/05/27 05:12:31;;;;;;;8.349999;7.65;;;;;;;12.13;85.25977;94799.31;;;;
2019/05/27 05:13:32;;;;;;;8.349999;7.65;;;;;;;12.13;85.25977;94799.31;;;;
2019/05/27 05:14:33;;;;;;;8.349999;7.65;;;;;;;12.13;85.25977;94799.31;;;;
2019/05/27 05:15:34;;;;;;;8.349999;7.65;;;;;;;12.13;85.25977;94799.31;;;;
2019/05/27 05:16:35;;;;;;;8.349999;7.65;;;;;;;12.13;85.25977;94799.31;;;;
2019/05/27 05:17:36;;;;;;;8.349999;7.65;;;;;;;12.13;85.25977;94799.31;;;;
2019/05/27 05:18:38;;;;;;;8.349999;7.65;;;;;;;12.13;85.25977;94799.31;;;;
2019/05/27 05:19:39;;;;;;;8.349999;7.65;;;;;;;12.13;85.25977;94799.31;;;;
2019/05/27 05:20:40;;;;;;;8.349999;7.65;;;;;;;12.13;85.25977;94799.31;;;;
2019/05/27 05:21:41;;;;;;;8.1;7.4;;;;;;;12.6;84.71973;94791.71;;;;
2019/05/27 05:22:42;;;;;;;8.1;7.4;;;;;;;12.6;84.71973;94791.71;;;;
2019/05/27 05:23:43;;;;;;;8.1;7.4;;;;;;;12.6;84.71973;94791.71;;;;
2019/05/27 05:24:44;;;;;;;8.1;7.4;;;;;;;12.6;84.71973;94791.71;;;;
2019/05/27 05:25:45;;;;;;;8.1;7.4;;;;;;;12.6;84.71973;94791.71;;;;
2019/05/27 05:26:46;;;;;;;8.1;7.4;;;;;;;12.6;84.71973;94791.71;;;;
2019/05/27 05:27:47;;;;;;;8.1;7.4;;;;;;;12.6;84.71973;94791.71;;;;
2019/05/27 05:28:48;;;;;;;8.1;7.4;;;;;;;12.6;84.71973;94791.71;;;;
2019/05/27 05:29:49;;;;;;;8.1;7.4;;;;;;;12.6;84.71973;94791.71;;;;
2019/05/27 05:30:50;;;;;;;8.1;7.4;;;;;;;12.6;84.71973;94791.71;;;;
2019/05/27 05:31:52;;;;;;;8.299999;7.5;;;;;;;13.23;83.98242;94784.39;;;;
2019/05/27 05:32:53;;;;;;;8.299999;7.5;;;;;;;13.23;83.98242;94784.39;;;;
2019/05/27 05:33:54;;;;;;;8.299999;7.5;;;;;;;13.23;83.98242;94784.39;;;;